createdAt,value
2023-03-06T00:01:04.323Z,8.95
2023-03-06T00:03:32.241Z,9.55
2023-03-06T00:05:59.477Z,8.10
2023-03-06T00:08:27.898Z,7.68
2023-03-06T00:10:57.819Z,6.35
2023-03-06T00:13:30.616Z,6.85
2023-03-06T00:16:00.787Z,9.20
2023-03-06T00:18:27.473Z,7.80
2023-03-06T00:20:57.184Z,6.82
2023-03-06T00:23:27.572Z,7.97
2023-03-06T00:25:56.938Z,7.07
2023-03-06T00:28:23.556Z,7.68
2023-03-06T00:30:50.667Z,8.63
2023-03-06T00:33:17.247Z,7.10
2023-03-06T00:35:43.892Z,8.13
2023-03-06T00:38:15.821Z,8.00
2023-03-06T00:40:42.433Z,6.53
2023-03-06T00:43:14.404Z,7.60
2023-03-06T00:45:41.008Z,9.32
2023-03-06T00:48:12.199Z,7.65
2023-03-06T00:50:41.278Z,8.65
2023-03-06T00:53:08.005Z,8.10
2023-03-06T00:55:36.788Z,7.63
2023-03-06T00:58:06.087Z,9.75
2023-03-06T01:03:01.653Z,5.68
2023-03-06T01:05:31.527Z,8.45
2023-03-06T01:07:58.186Z,7.70
2023-03-06T01:10:27.356Z,6.50
2023-03-06T01:13:01.397Z,7.15
2023-03-06T01:15:27.947Z,9.25
2023-03-06T01:17:57.132Z,7.55
2023-03-06T01:20:23.878Z,8.88
2023-03-06T01:22:51.185Z,6.78
2023-03-06T01:25:18.045Z,7.63
2023-03-06T01:27:46.927Z,7.80
2023-03-06T01:30:13.785Z,10.68
2023-03-06T01:32:43.042Z,5.82
2023-03-06T01:37:37.194Z,7.30
2023-03-06T01:40:06.994Z,10.10
2023-03-06T01:42:33.745Z,7.47
2023-03-06T01:45:05.598Z,13.45
2023-03-06T01:47:34.390Z,5.97
2023-03-06T01:50:04.038Z,7.05
2023-03-06T01:52:37.242Z,6.68
2023-03-06T01:55:11.120Z,5.93
2023-03-06T01:57:51.215Z,10.45
2023-03-06T02:00:22.673Z,8.00
2023-03-06T02:03:02.713Z,8.98
2023-03-06T02:05:31.975Z,5.65
2023-03-06T02:10:25.567Z,9.88
2023-03-06T02:12:53.151Z,6.88
2023-03-06T02:15:22.852Z,6.28
2023-03-06T02:17:51.686Z,7.88
2023-03-06T02:20:51.016Z,9.25
2023-03-06T02:23:42.587Z,8.68
2023-03-06T02:26:10.512Z,7.70
2023-03-06T02:28:37.548Z,7.72
2023-03-06T02:31:07.310Z,8.05
2023-03-06T02:33:36.305Z,8.45
2023-03-06T02:36:06.147Z,5.97
2023-03-06T02:38:50.022Z,6.95
2023-03-06T02:41:17.028Z,7.60
2023-03-06T02:43:50.612Z,7.13
2023-03-06T02:46:20.058Z,8.98
2023-03-06T02:48:48.990Z,6.45
2023-03-06T02:51:15.653Z,8.25
2023-03-06T02:53:46.978Z,6.43
2023-03-06T02:56:16.443Z,6.70
2023-03-06T02:58:43.243Z,6.97
2023-03-06T03:01:12.617Z,7.95
2023-03-06T03:03:41.469Z,7.97
2023-03-06T03:06:10.419Z,5.50
2023-03-06T03:08:38.013Z,7.63
2023-03-06T03:11:09.334Z,6.20
2023-03-06T03:13:37.568Z,9.70
2023-03-06T03:16:07.284Z,7.15
2023-03-06T03:18:36.642Z,8.35
2023-03-06T03:21:14.450Z,7.35
2023-03-06T03:23:44.024Z,5.78
2023-03-06T03:26:18.758Z,6.65
2023-03-06T03:28:47.750Z,7.15
2023-03-06T03:31:17.824Z,5.68
2023-03-06T03:33:44.444Z,6.28
2023-03-06T03:36:11.388Z,6.03
2023-03-06T03:38:37.961Z,10.38
2023-03-06T03:41:09.278Z,5.63
2023-03-06T03:43:38.563Z,6.40
2023-03-06T03:48:38.076Z,6.30
2023-03-06T03:51:08.408Z,5.50
2023-03-06T03:53:35.244Z,8.90
2023-03-06T03:56:01.886Z,7.97
2023-03-06T03:58:31.251Z,7.25
2023-03-06T04:00:57.931Z,7.03
2023-03-06T04:03:26.993Z,9.43
2023-03-06T04:05:58.023Z,7.32
2023-03-06T04:08:30.401Z,9.73
2023-03-06T04:10:57.039Z,6.80
2023-03-06T04:13:24.270Z,7.57
2023-03-06T04:15:53.398Z,7.65
2023-03-06T04:18:20.935Z,5.07
2023-03-06T04:20:50.819Z,9.95
2023-03-06T04:23:18.900Z,6.50
2023-03-06T04:25:48.822Z,6.78
2023-03-06T04:28:15.756Z,7.72
2023-03-06T04:30:45.091Z,7.00
2023-03-06T04:35:43.167Z,9.25
2023-03-06T04:38:09.943Z,9.30
2023-03-06T04:40:39.159Z,8.25
2023-03-06T04:45:34.964Z,8.93
2023-03-06T04:48:01.845Z,12.60
2023-03-06T04:50:33.825Z,10.57
2023-03-06T04:53:01.712Z,11.10
2023-03-06T04:55:28.819Z,9.50
2023-03-06T04:58:01.721Z,11.70
2023-03-06T05:00:31.803Z,8.93
2023-03-06T05:03:02.111Z,9.45
2023-03-06T05:05:29.436Z,8.48
2023-03-06T05:07:56.251Z,8.48
2023-03-06T05:10:25.620Z,9.70
2023-03-06T05:12:54.993Z,8.27
2023-03-06T05:15:21.657Z,7.47
2023-03-06T05:17:50.774Z,10.68
2023-03-06T05:20:18.225Z,10.07
2023-03-06T05:22:44.926Z,11.48
2023-03-06T05:25:12.186Z,11.32
2023-03-06T05:27:41.713Z,11.30
2023-03-06T05:30:13.549Z,10.05
2023-03-06T05:32:40.433Z,12.20
2023-03-06T05:35:19.255Z,10.38
2023-03-06T05:37:46.839Z,9.52
2023-03-06T05:40:14.670Z,13.80
2023-03-06T05:42:44.000Z,10.32
2023-03-06T05:47:42.351Z,10.60
2023-03-06T05:52:39.762Z,9.57
2023-03-06T05:55:07.444Z,10.93
2023-03-06T05:57:36.344Z,10.63
2023-03-06T06:00:04.070Z,11.10
2023-03-06T06:02:33.033Z,9.05
2023-03-06T06:05:02.708Z,13.50
2023-03-06T06:07:29.349Z,12.40
2023-03-06T06:09:58.286Z,11.68
2023-03-06T06:12:25.111Z,11.77
2023-03-06T06:14:54.258Z,14.85
2023-03-06T06:17:21.271Z,11.50
2023-03-06T06:19:47.940Z,13.93
2023-03-06T06:22:17.086Z,13.95
2023-03-06T06:24:43.764Z,17.65
2023-03-06T06:27:12.637Z,9.15
2023-03-06T06:29:43.989Z,11.82
2023-03-06T06:32:10.552Z,13.02
2023-03-06T06:34:37.226Z,11.10
2023-03-06T06:37:08.568Z,12.98
2023-03-06T06:39:39.128Z,11.55
2023-03-06T06:42:29.327Z,9.55
2023-03-06T06:44:59.200Z,10.73
2023-03-06T06:47:29.390Z,13.75
2023-03-06T06:49:57.062Z,12.43
2023-03-06T06:52:24.726Z,14.32
2023-03-06T06:54:52.168Z,12.13
2023-03-06T06:57:24.169Z,12.75
2023-03-06T06:59:54.329Z,13.48
2023-03-06T07:02:23.488Z,11.73
2023-03-06T07:05:03.557Z,14.05
2023-03-06T07:07:37.775Z,13.50
2023-03-06T07:10:09.889Z,17.88
2023-03-06T07:12:39.902Z,14.88
2023-03-06T07:15:08.097Z,13.80
2023-03-06T07:17:34.719Z,17.10
2023-03-06T07:20:01.417Z,15.70
2023-03-06T07:22:30.310Z,17.45
2023-03-06T07:24:58.790Z,17.45
2023-03-06T07:27:26.347Z,14.48
2023-03-06T07:29:53.233Z,16.15
2023-03-06T07:32:20.839Z,13.13
2023-03-06T07:34:47.999Z,12.45
2023-03-06T07:37:14.703Z,15.65
2023-03-06T07:39:43.451Z,12.50
2023-03-06T07:42:15.861Z,8.40
2023-03-06T07:44:45.286Z,10.02
2023-03-06T07:47:15.654Z,10.70
2023-03-06T07:49:49.554Z,13.00
2023-03-06T07:52:21.171Z,12.82
2023-03-06T07:54:48.197Z,11.80
2023-03-06T07:57:17.450Z,11.65
2023-03-06T08:02:12.294Z,13.07
2023-03-06T08:04:42.356Z,13.40
2023-03-06T08:07:09.148Z,12.05
2023-03-06T08:09:35.992Z,11.52
2023-03-06T08:12:07.654Z,11.40
2023-03-06T08:14:35.242Z,9.85
2023-03-06T08:17:06.922Z,11.55
2023-03-06T08:19:36.538Z,14.80
2023-03-06T08:22:08.416Z,10.85
2023-03-06T08:24:37.458Z,10.48
2023-03-06T08:27:06.252Z,13.98
2023-03-06T08:29:33.069Z,10.60
2023-03-06T08:31:59.879Z,13.77
2023-03-06T08:34:29.044Z,13.05
2023-03-06T08:36:55.996Z,12.45
2023-03-06T08:39:25.599Z,9.63
2023-03-06T08:41:52.202Z,11.55
2023-03-06T08:44:21.150Z,11.45
2023-03-06T08:46:50.270Z,12.20
2023-03-06T08:49:16.914Z,13.18
2023-03-06T08:51:45.890Z,10.07
2023-03-06T08:54:16.047Z,13.60
2023-03-06T08:56:42.953Z,12.63
2023-03-06T08:59:13.770Z,11.00
2023-03-06T09:01:40.872Z,12.05
2023-03-06T09:04:14.116Z,14.43
2023-03-06T09:06:42.853Z,14.00
2023-03-06T09:09:12.227Z,12.48
2023-03-06T09:11:39.192Z,13.38
2023-03-06T09:14:09.084Z,12.32
2023-03-06T09:16:36.221Z,12.48
2023-03-06T09:19:02.947Z,12.52
2023-03-06T09:21:32.028Z,12.07
2023-03-06T09:23:59.320Z,12.00
2023-03-06T09:26:43.436Z,15.00
2023-03-06T09:29:13.015Z,10.98
2023-03-06T09:31:41.910Z,13.75
2023-03-06T09:34:08.641Z,13.85
2023-03-06T09:36:53.732Z,17.48
2023-03-06T09:41:52.853Z,12.15
2023-03-06T09:44:26.093Z,11.63
2023-03-06T09:47:08.311Z,14.38
2023-03-06T09:49:40.822Z,15.63
2023-03-06T09:52:10.320Z,11.68
2023-03-06T09:54:52.232Z,12.45
2023-03-06T09:57:33.183Z,14.60
2023-03-06T10:00:10.572Z,14.48
2023-03-06T10:03:06.874Z,14.15
2023-03-06T10:05:40.140Z,17.00
2023-03-06T10:08:19.314Z,16.83
2023-03-06T10:11:05.597Z,13.60
2023-03-06T10:13:40.151Z,13.55
2023-03-06T10:16:36.811Z,11.38
2023-03-06T10:19:14.220Z,14.30
2023-03-06T10:22:00.332Z,15.38
2023-03-06T10:24:38.372Z,12.93
2023-03-06T10:27:36.043Z,16.25
2023-03-06T10:30:36.770Z,16.55
2023-03-06T10:33:12.054Z,14.85
2023-03-06T10:35:54.177Z,14.00
2023-03-06T10:38:30.006Z,15.63
2023-03-06T10:41:12.502Z,17.25
2023-03-06T10:44:00.312Z,17.48
2023-03-06T10:46:32.216Z,15.30
2023-03-06T10:49:05.418Z,12.50
2023-03-06T10:51:34.177Z,14.60
2023-03-06T10:54:03.836Z,14.27
2023-03-06T10:56:36.677Z,15.50
2023-03-06T10:59:14.592Z,14.40
2023-03-06T11:01:46.192Z,15.13
2023-03-06T11:04:24.362Z,13.88
2023-03-06T11:07:15.996Z,13.05
2023-03-06T11:09:47.815Z,13.95
2023-03-06T11:12:23.394Z,15.25
2023-03-06T11:15:23.615Z,14.35
2023-03-06T11:17:58.026Z,16.25
2023-03-06T11:20:26.936Z,15.00
2023-03-06T11:23:19.329Z,11.82
2023-03-06T11:26:03.516Z,13.00
2023-03-06T11:28:34.755Z,15.85
2023-03-06T11:31:07.292Z,15.30
2023-03-06T11:33:42.748Z,13.10
2023-03-06T11:36:23.257Z,15.98
2023-03-06T11:38:56.407Z,17.65
2023-03-06T11:42:02.615Z,15.30
2023-03-06T11:44:35.307Z,15.00
2023-03-06T11:47:28.151Z,20.45
2023-03-06T11:50:17.859Z,20.08
2023-03-06T11:52:51.492Z,12.68
2023-03-06T11:55:39.609Z,16.73
2023-03-06T11:58:12.350Z,15.50
2023-03-06T12:00:56.537Z,14.93
2023-03-06T12:03:47.358Z,13.00
2023-03-06T12:06:34.107Z,16.42
2023-03-06T12:09:12.811Z,14.90
2023-03-06T12:12:03.985Z,13.07
2023-03-06T12:14:52.314Z,14.32
2023-03-06T12:17:21.842Z,14.43
2023-03-06T12:19:57.390Z,13.05
2023-03-06T12:22:36.461Z,16.33
2023-03-06T12:25:06.037Z,17.27
2023-03-06T12:27:40.876Z,18.48
2023-03-06T12:30:12.818Z,14.02
2023-03-06T12:32:47.843Z,14.52
2023-03-06T12:35:22.341Z,14.88
2023-03-06T12:38:31.950Z,15.60
2023-03-06T12:41:17.332Z,16.70
2023-03-06T12:44:08.076Z,14.38
2023-03-06T12:46:45.956Z,18.52
2023-03-06T12:49:31.873Z,15.15
2023-03-06T12:52:02.940Z,16.75
2023-03-06T12:54:37.988Z,17.17
2023-03-06T12:57:08.921Z,17.27
2023-03-06T12:59:49.638Z,17.77
2023-03-06T13:02:31.694Z,13.18
2023-03-06T13:05:21.650Z,17.88
2023-03-06T13:08:08.511Z,17.88
2023-03-06T13:10:36.919Z,15.10
2023-03-06T13:13:32.679Z,15.45
2023-03-06T13:16:25.315Z,15.18
2023-03-06T13:18:57.342Z,15.48
2023-03-06T13:21:42.375Z,15.70
2023-03-06T13:24:21.455Z,16.70
2023-03-06T13:26:47.951Z,18.60
2023-03-06T13:29:40.953Z,17.67
2023-03-06T13:32:18.675Z,16.27
2023-03-06T13:34:48.660Z,16.38
2023-03-06T13:37:23.296Z,26.13
2023-03-06T13:39:56.044Z,17.33
2023-03-06T13:42:48.203Z,17.42
2023-03-06T13:45:25.856Z,19.08
2023-03-06T13:50:47.233Z,15.73
2023-03-06T13:53:40.843Z,17.70
2023-03-06T13:56:10.595Z,17.45
2023-03-06T13:59:16.967Z,23.02
2023-03-06T14:02:23.776Z,19.75
2023-03-06T14:12:03.079Z,16.67
2023-03-06T14:14:46.587Z,17.25
2023-03-06T14:17:34.710Z,16.40
2023-03-06T14:20:17.761Z,22.00
2023-03-06T14:22:44.385Z,21.92
2023-03-06T14:25:28.518Z,18.23
2023-03-06T14:28:05.689Z,19.58
2023-03-06T14:30:49.598Z,18.23
2023-03-06T14:33:47.247Z,17.48
2023-03-06T14:36:19.998Z,18.55
2023-03-06T14:38:56.247Z,19.88
2023-03-06T14:41:29.866Z,16.52
2023-03-06T14:44:20.088Z,18.88
2023-03-06T14:46:51.647Z,19.45
2023-03-06T14:49:20.931Z,17.48
2023-03-06T14:51:50.289Z,19.33
2023-03-06T14:54:28.796Z,18.33
2023-03-06T14:57:02.184Z,24.17
2023-03-06T14:59:31.069Z,18.85
2023-03-06T15:02:01.709Z,17.08
2023-03-06T15:04:51.327Z,21.30
2023-03-06T15:07:27.884Z,17.00
2023-03-06T15:10:40.636Z,20.30
2023-03-06T15:13:11.711Z,21.23
2023-03-06T15:15:38.458Z,21.15
2023-03-06T15:18:29.689Z,19.60
2023-03-06T15:21:14.830Z,20.23
2023-03-06T15:23:46.256Z,16.40
2023-03-06T15:26:29.371Z,17.63
2023-03-06T15:29:09.292Z,15.73
2023-03-06T15:31:45.173Z,18.02
2023-03-06T15:36:49.054Z,18.42
2023-03-06T15:43:52.637Z,17.23
2023-03-06T15:46:21.522Z,19.17
2023-03-06T15:49:04.791Z,21.77
2023-03-06T15:51:32.781Z,17.83
2023-03-06T15:54:11.929Z,13.32
2023-03-06T15:56:41.784Z,19.35
2023-03-06T16:01:43.292Z,16.35
2023-03-06T16:04:09.957Z,19.55
2023-03-06T16:06:37.647Z,17.35
2023-03-06T16:09:09.278Z,18.17
2023-03-06T16:11:43.793Z,18.08
2023-03-06T16:14:24.589Z,19.45
2023-03-06T16:16:57.636Z,16.85
2023-03-06T16:19:27.963Z,18.42
2023-03-06T16:22:21.537Z,18.00
2023-03-06T16:24:51.338Z,16.10
2023-03-06T16:27:25.703Z,17.48
2023-03-06T16:30:00.824Z,17.63
2023-03-06T16:32:28.813Z,17.20
2023-03-06T16:34:56.032Z,19.33
2023-03-06T16:41:12.304Z,18.20
2023-03-06T16:43:38.968Z,16.67
2023-03-06T16:46:23.942Z,20.48
2023-03-06T16:48:53.243Z,14.50
2023-03-06T16:53:54.581Z,17.52
2023-03-06T16:56:23.677Z,16.65
2023-03-06T16:58:50.344Z,22.63
2023-03-06T17:01:19.677Z,18.73
2023-03-06T17:03:51.195Z,17.05
2023-03-06T17:06:21.201Z,16.80
2023-03-06T17:08:51.494Z,19.25
2023-03-06T17:11:20.803Z,18.73
2023-03-06T17:16:20.782Z,18.38
2023-03-06T17:18:47.764Z,18.77
2023-03-06T17:21:15.745Z,19.63
2023-03-06T17:23:45.678Z,19.77
2023-03-06T17:26:20.095Z,17.42
2023-03-06T17:28:47.422Z,21.30
2023-03-06T17:31:33.271Z,16.17
2023-03-06T17:34:00.751Z,19.27
2023-03-06T17:36:36.393Z,18.98
2023-03-06T17:39:05.334Z,20.95
2023-03-06T17:41:34.271Z,19.65
2023-03-06T17:44:01.862Z,17.33
2023-03-06T17:46:34.633Z,16.63
2023-03-06T17:49:53.638Z,18.27
2023-03-06T17:52:20.245Z,18.20
2023-03-06T17:54:49.144Z,19.73
2023-03-06T17:57:18.030Z,18.77
2023-03-06T17:59:50.779Z,18.67
2023-03-06T18:02:20.051Z,16.90
2023-03-06T18:07:18.504Z,17.42
2023-03-06T18:12:25.931Z,18.50
2023-03-06T18:14:52.552Z,20.17
2023-03-06T18:17:54.856Z,17.77
2023-03-06T18:20:21.431Z,19.92
2023-03-06T18:22:50.030Z,19.13
2023-03-06T18:25:23.238Z,18.67
2023-03-06T18:27:49.898Z,19.50
2023-03-06T18:30:19.003Z,16.88
2023-03-06T18:33:03.958Z,18.42
2023-03-06T18:35:30.651Z,17.58
2023-03-06T18:37:57.274Z,18.15
2023-03-06T18:40:28.593Z,17.15
2023-03-06T18:42:55.183Z,17.23
2023-03-06T18:49:43.130Z,17.08
2023-03-06T18:52:12.991Z,17.17
2023-03-06T18:54:44.870Z,17.60
2023-03-06T18:57:13.641Z,19.35
2023-03-06T18:59:42.578Z,17.70
2023-03-06T19:02:12.847Z,20.58
2023-03-06T19:04:57.671Z,19.25
2023-03-06T19:07:27.608Z,16.98
2023-03-06T19:13:10.642Z,18.90
2023-03-06T19:15:45.695Z,18.42
2023-03-06T19:18:16.852Z,17.92
2023-03-06T19:20:45.016Z,15.77
2023-03-06T19:23:11.740Z,18.85
2023-03-06T19:25:43.755Z,20.30
2023-03-06T19:28:15.110Z,17.02
2023-03-06T19:30:41.739Z,18.55
2023-03-06T19:33:25.360Z,18.73
2023-03-06T19:35:52.569Z,18.75
2023-03-06T19:38:22.291Z,20.20
2023-03-06T19:40:54.520Z,18.08
2023-03-06T19:43:22.455Z,20.30
2023-03-06T19:45:51.145Z,21.95
2023-03-06T19:48:29.685Z,20.33
2023-03-06T19:51:31.898Z,17.83
2023-03-06T19:53:58.544Z,15.68
2023-03-06T19:56:32.016Z,17.38
2023-03-06T19:58:58.715Z,19.45
2023-03-06T20:01:31.203Z,19.33
2023-03-06T20:07:20.488Z,23.15
2023-03-06T20:09:50.136Z,19.42
2023-03-06T20:12:16.922Z,20.85
2023-03-06T20:14:46.041Z,19.55
2023-03-06T20:17:15.059Z,20.38
2023-03-06T20:19:44.468Z,17.45
2023-03-06T20:22:13.573Z,20.98
2023-03-06T20:24:40.411Z,21.77
2023-03-06T20:27:09.360Z,19.10
2023-03-06T20:29:36.075Z,23.17
2023-03-06T20:32:05.206Z,19.27
2023-03-06T20:34:31.837Z,17.13
2023-03-06T20:37:00.871Z,21.90
2023-03-06T20:39:27.661Z,21.75
2023-03-06T20:41:54.852Z,20.88
2023-03-06T20:44:21.699Z,23.23
2023-03-06T20:46:52.123Z,20.67
2023-03-06T20:49:22.147Z,22.83
2023-03-06T20:51:51.341Z,23.20
2023-03-06T20:54:18.249Z,21.42
2023-03-06T20:56:50.118Z,19.30
2023-03-06T20:59:17.195Z,22.92
2023-03-06T21:01:48.005Z,18.05
2023-03-06T21:04:19.359Z,20.10
2023-03-06T21:06:46.900Z,17.52
2023-03-06T21:09:17.737Z,20.30
2023-03-06T21:11:47.319Z,21.38
2023-03-06T21:14:19.094Z,20.63
2023-03-06T21:16:45.762Z,20.45
2023-03-06T21:19:20.294Z,18.73
2023-03-06T21:21:51.641Z,18.88
2023-03-06T21:24:21.427Z,21.55
2023-03-06T21:26:51.370Z,17.77
2023-03-06T21:29:18.099Z,20.40
2023-03-06T21:31:45.199Z,19.83
2023-03-06T21:34:14.446Z,19.05
2023-03-06T21:36:45.054Z,23.75
2023-03-06T21:39:16.381Z,21.05
2023-03-06T21:41:50.269Z,25.17
2023-03-06T21:44:16.893Z,21.77
2023-03-06T21:46:43.543Z,17.85
2023-03-06T21:49:12.454Z,23.10
2023-03-06T21:51:39.190Z,22.05
2023-03-06T21:54:06.839Z,24.25
2023-03-06T21:56:33.699Z,24.30
2023-03-06T21:59:00.940Z,26.52
2023-03-06T22:01:30.867Z,26.95
2023-03-06T22:03:58.836Z,25.05
2023-03-06T22:06:30.268Z,25.13
2023-03-06T22:09:01.823Z,26.08
2023-03-06T22:11:37.207Z,23.08
2023-03-06T22:16:33.771Z,21.30
2023-03-06T22:19:03.629Z,29.23
2023-03-06T22:21:35.273Z,25.80
2023-03-06T22:24:02.028Z,25.35
2023-03-06T22:26:31.405Z,26.95
2023-03-06T22:31:52.024Z,22.35
2023-03-06T22:34:22.627Z,26.40
2023-03-06T22:36:51.678Z,25.25
2023-03-06T22:39:18.808Z,26.85
2023-03-06T22:41:45.393Z,26.38
2023-03-06T22:44:18.369Z,30.83
2023-03-06T22:46:51.710Z,26.75
2023-03-06T22:49:20.780Z,25.02
2023-03-06T22:51:49.842Z,29.60
2023-03-06T22:54:16.532Z,26.90
2023-03-06T22:56:43.187Z,25.13
2023-03-06T22:59:09.853Z,23.88
2023-03-06T23:01:36.545Z,27.58
2023-03-06T23:04:08.756Z,30.65
2023-03-06T23:06:39.975Z,25.83
2023-03-06T23:09:08.217Z,27.58
2023-03-06T23:11:35.496Z,31.35
2023-03-06T23:14:02.501Z,30.15
2023-03-06T23:16:31.521Z,33.97
2023-03-06T23:18:58.725Z,29.10
2023-03-06T23:21:25.543Z,24.73
2023-03-06T23:23:55.079Z,32.35
2023-03-06T23:26:29.220Z,28.92
2023-03-06T23:28:57.025Z,25.33
2023-03-06T23:31:32.039Z,28.73
2023-03-06T23:34:02.975Z,28.85
2023-03-06T23:36:35.412Z,29.65
2023-03-06T23:39:04.392Z,25.75
2023-03-06T23:41:31.181Z,27.85
2023-03-06T23:44:03.281Z,28.05
2023-03-06T23:46:29.919Z,26.73
2023-03-06T23:48:56.557Z,29.70
2023-03-06T23:51:25.869Z,23.42
2023-03-06T23:54:00.824Z,29.23
2023-03-06T23:56:28.932Z,27.65
2023-03-06T23:58:57.956Z,28.98
